Terminal Aerodrome Forecast
Issued by NWS

Home | Current Version | Previous Version | Text Only | Print | Product List | Glossary On
Versions: 1 2 3 4 5 6 7 8 9 10 11 12 13 14 15 16 17 18 19 20 21 22 23 24
000
FTUS44 KTSA 270500
TAFFYV
TAF
KFYV 270520Z 2706/2806 20002KT P6SM VCTS SCT050CB BKN150
     FM271000 21005KT P6SM VCTS OVC015CB
     FM271800 21008KT P6SM VCTS OVC035CB=

USA.gov is the U.S. government's official web portal to all federal, state and local government web resources and services.